createdAt,value
2023-01-07T00:02:09.961Z,1.80
2023-01-07T00:07:12.703Z,1.40
2023-01-07T00:12:15.411Z,2.67
2023-01-07T00:17:19.598Z,1.70
2023-01-07T00:22:22.328Z,1.58
2023-01-07T00:27:25.411Z,2.25
2023-01-07T00:32:50.851Z,1.88
2023-01-07T00:37:54.750Z,2.55
2023-01-07T00:43:01.588Z,2.17
2023-01-07T00:48:06.097Z,1.75
2023-01-07T00:53:08.914Z,1.70
2023-01-07T00:58:15.708Z,1.77
2023-01-07T01:03:20.702Z,1.58
2023-01-07T01:08:23.762Z,3.08
2023-01-07T01:13:26.496Z,1.75
2023-01-07T01:18:30.594Z,2.00
2023-01-07T01:23:33.772Z,2.20
2023-01-07T01:28:37.313Z,3.28
2023-01-07T01:33:41.642Z,2.05
2023-01-07T01:38:44.637Z,1.42
2023-01-07T01:43:47.872Z,1.50
2023-01-07T01:48:55.671Z,2.45
2023-01-07T01:53:59.068Z,1.38
2023-01-07T01:59:04.687Z,1.50
2023-01-07T02:04:13.191Z,1.40
2023-01-07T02:09:16.404Z,1.08
2023-01-07T02:14:41.062Z,1.60
2023-01-07T02:20:13.973Z,1.25
2023-01-07T02:25:54.744Z,1.15
2023-01-07T02:31:20.074Z,1.10
2023-01-07T02:36:44.589Z,1.08
2023-01-07T02:41:52.963Z,1.00
2023-01-07T02:47:00.627Z,1.10
2023-01-07T02:52:22.751Z,1.30
2023-01-07T02:58:03.943Z,1.00
2023-01-07T03:03:22.295Z,1.17
2023-01-07T03:08:39.031Z,1.70
2023-01-07T03:13:48.700Z,0.70
2023-01-07T03:18:57.540Z,0.70
2023-01-07T03:24:02.680Z,1.05
2023-01-07T03:29:08.711Z,0.77
2023-01-07T03:34:14.123Z,1.48
2023-01-07T03:39:18.886Z,1.08
2023-01-07T03:44:21.795Z,1.42
2023-01-07T03:49:25.023Z,1.40
2023-01-07T03:54:30.092Z,1.20
2023-01-07T03:59:33.128Z,3.28
2023-01-07T04:04:36.371Z,0.80
2023-01-07T04:09:41.084Z,1.05
2023-01-07T04:14:45.006Z,1.40
2023-01-07T04:19:48.405Z,1.02
2023-01-07T04:24:52.560Z,1.35
2023-01-07T04:29:55.692Z,1.20
2023-01-07T04:34:58.582Z,1.20
2023-01-07T04:40:03.680Z,0.93
2023-01-07T04:45:11.549Z,1.00
2023-01-07T04:50:14.888Z,1.88
2023-01-07T04:55:19.185Z,1.90
2023-01-07T05:00:23.983Z,1.75
2023-01-07T05:05:29.096Z,1.02
2023-01-07T05:10:33.912Z,1.67
2023-01-07T05:15:38.011Z,0.60
2023-01-07T05:20:41.131Z,1.67
2023-01-07T05:25:45.370Z,0.60
2023-01-07T05:30:48.381Z,0.95
2023-01-07T05:35:51.334Z,0.50
2023-01-07T05:40:57.374Z,0.70
2023-01-07T05:46:02.440Z,0.50
2023-01-07T05:51:05.845Z,0.60
2023-01-07T05:56:09.984Z,0.50
2023-01-07T06:01:12.775Z,0.50
2023-01-07T06:06:15.502Z,0.50
2023-01-07T06:11:19.583Z,0.60
2023-01-07T06:16:22.603Z,0.70
2023-01-07T06:21:25.325Z,0.57
2023-01-07T06:26:29.346Z,0.63
2023-01-07T06:31:32.109Z,1.15
2023-01-07T06:36:34.871Z,0.80
2023-01-07T06:41:38.971Z,1.17
2023-01-07T06:46:41.950Z,0.30
2023-01-07T06:51:44.702Z,0.40
2023-01-07T06:56:49.098Z,0.40
2023-01-07T07:01:51.926Z,0.70
2023-01-07T07:06:54.667Z,0.45
2023-01-07T07:11:58.718Z,0.50
2023-01-07T07:17:01.630Z,0.40
2023-01-07T07:22:04.892Z,1.05
2023-01-07T07:27:08.999Z,0.30
2023-01-07T07:32:11.729Z,0.47
2023-01-07T07:37:14.481Z,0.30
2023-01-07T07:42:18.553Z,0.50
2023-01-07T07:47:21.303Z,0.50
2023-01-07T07:52:23.987Z,0.88
2023-01-07T07:57:28.173Z,0.73
2023-01-07T08:02:31.085Z,0.30
2023-01-07T08:07:35.232Z,0.50
2023-01-07T08:12:41.017Z,0.50
2023-01-07T08:17:44.018Z,0.60
2023-01-07T08:22:46.885Z,0.50
2023-01-07T08:27:51.056Z,2.58
2023-01-07T08:32:54.852Z,0.50
2023-01-07T08:38:02.416Z,0.32
2023-01-07T08:43:07.802Z,0.60
2023-01-07T08:48:10.554Z,1.10
2023-01-07T08:53:13.452Z,0.52
2023-01-07T08:58:18.981Z,0.63
2023-01-07T09:03:21.728Z,1.48
2023-01-07T09:08:24.437Z,0.40
2023-01-07T09:13:28.573Z,0.45
2023-01-07T09:18:31.375Z,1.05
2023-01-07T09:23:34.136Z,0.80
2023-01-07T09:28:38.200Z,0.68
2023-01-07T09:33:41.236Z,1.65
2023-01-07T09:38:44.033Z,0.50
2023-01-07T09:44:00.777Z,0.50
2023-01-07T09:49:04.979Z,0.85
2023-01-07T09:54:20.080Z,0.30
2023-01-07T09:59:24.281Z,0.50
2023-01-07T10:04:34.280Z,1.73
2023-01-07T10:09:45.039Z,0.40
2023-01-07T10:14:59.429Z,6.03
2023-01-07T10:20:05.651Z,0.60
2023-01-07T10:25:16.648Z,0.60
2023-01-07T10:30:25.209Z,0.93
2023-01-07T10:35:30.418Z,1.42
2023-01-07T10:40:38.773Z,0.50
2023-01-07T10:45:51.920Z,1.13
2023-01-07T10:51:03.468Z,0.68
2023-01-07T10:56:13.855Z,1.23
2023-01-07T11:01:24.280Z,0.30
2023-01-07T11:06:35.787Z,0.40
2023-01-07T11:11:39.175Z,0.30
2023-01-07T11:16:47.540Z,0.30
2023-01-07T11:21:52.096Z,0.20
2023-01-07T11:27:00.390Z,0.47
2023-01-07T11:32:05.894Z,0.57
2023-01-07T11:37:12.416Z,0.35
2023-01-07T11:42:35.315Z,0.40
2023-01-07T11:47:40.677Z,0.30
2023-01-07T11:52:56.488Z,0.30
2023-01-07T11:58:28.326Z,0.40
2023-01-07T12:03:24.129Z,0.47
2023-01-07T12:08:27.385Z,0.50
2023-01-07T12:13:30.328Z,0.60
2023-01-07T12:18:58.459Z,1.60
2023-01-07T12:24:40.245Z,0.40
2023-01-07T12:29:53.260Z,0.32
2023-01-07T12:35:14.572Z,2.10
2023-01-07T12:40:30.192Z,0.77
2023-01-07T12:45:37.110Z,0.50
2023-01-07T12:50:42.795Z,1.38
2023-01-07T12:55:48.832Z,0.63
2023-01-07T13:00:56.236Z,0.95
2023-01-07T13:06:06.526Z,1.48
2023-01-07T13:11:16.591Z,0.68
2023-01-07T13:16:19.515Z,0.93
2023-01-07T13:21:24.054Z,0.90
2023-01-07T13:26:33.926Z,1.15
2023-01-07T13:31:46.663Z,1.17
2023-01-07T13:37:02.749Z,0.95
2023-01-07T13:42:23.728Z,1.30
2023-01-07T13:47:28.365Z,1.02
2023-01-07T13:52:33.743Z,0.65
2023-01-07T13:57:44.559Z,0.55
2023-01-07T14:02:55.817Z,1.05
2023-01-07T14:08:02.307Z,0.95
2023-01-07T14:13:17.337Z,1.60
2023-01-07T14:18:57.848Z,1.38
2023-01-07T14:24:18.580Z,1.00
2023-01-07T14:29:43.127Z,1.40
2023-01-07T14:34:54.539Z,1.92
2023-01-07T14:39:58.887Z,3.97
2023-01-07T14:45:02.735Z,2.58
2023-01-07T14:50:19.636Z,1.55
2023-01-07T14:55:35.249Z,1.52
2023-01-07T15:01:04.387Z,5.03
2023-01-07T15:06:20.600Z,2.15
2023-01-07T15:11:43.939Z,4.40
2023-01-07T15:16:48.863Z,2.53
2023-01-07T15:21:58.487Z,5.28
2023-01-07T15:27:06.661Z,1.83
2023-01-07T15:32:17.869Z,2.42
2023-01-07T15:37:20.991Z,2.97
2023-01-07T15:42:27.270Z,4.10
2023-01-07T15:47:32.735Z,2.47
2023-01-07T15:52:35.507Z,2.65
2023-01-07T15:57:39.655Z,1.77
2023-01-07T16:02:45.693Z,1.98
2023-01-07T16:07:53.426Z,1.88
2023-01-07T16:13:03.631Z,2.88
2023-01-07T16:18:18.888Z,1.50
2023-01-07T16:23:23.476Z,2.20
2023-01-07T16:28:32.070Z,3.55
2023-01-07T16:33:35.111Z,1.88
2023-01-07T16:38:38.194Z,2.30
2023-01-07T16:43:46.057Z,1.67
2023-01-07T16:48:49.833Z,2.30
2023-01-07T16:53:52.533Z,2.13
2023-01-07T16:58:57.500Z,2.08
2023-01-07T17:04:02.288Z,2.80
2023-01-07T17:09:05.383Z,4.00
2023-01-07T17:14:47.797Z,3.45
2023-01-07T17:19:54.468Z,4.78
2023-01-07T17:25:03.435Z,3.70
2023-01-07T17:30:13.856Z,2.65
2023-01-07T17:35:20.856Z,2.25
2023-01-07T17:40:23.758Z,5.43
2023-01-07T17:45:28.520Z,2.30
2023-01-07T17:50:37.299Z,2.35
2023-01-07T17:55:40.179Z,2.28
2023-01-07T18:00:44.379Z,2.00
2023-01-07T18:05:47.116Z,2.25
2023-01-07T18:11:07.707Z,3.13
2023-01-07T18:16:17.147Z,2.53
2023-01-07T18:21:21.510Z,2.10
2023-01-07T18:26:24.680Z,1.88
2023-01-07T18:31:28.768Z,1.80
2023-01-07T18:36:31.481Z,4.10
2023-01-07T18:41:34.966Z,2.72
2023-01-07T18:46:40.136Z,1.50
2023-01-07T18:51:42.861Z,1.92
2023-01-07T18:56:46.726Z,2.47
2023-01-07T19:01:52.583Z,2.10
2023-01-07T19:06:55.369Z,2.33
2023-01-07T19:11:58.107Z,3.00
2023-01-07T19:17:02.815Z,3.20
2023-01-07T19:22:05.568Z,2.13
2023-01-07T19:27:08.483Z,3.35
2023-01-07T19:32:12.769Z,4.35
2023-01-07T19:37:15.437Z,3.20
2023-01-07T19:42:18.223Z,3.03
2023-01-07T19:47:23.210Z,3.50
2023-01-07T19:52:25.956Z,3.40
2023-01-07T19:57:28.943Z,3.70
2023-01-07T20:02:33.180Z,3.03
2023-01-07T20:07:35.997Z,4.50
2023-01-07T20:12:39.144Z,2.97
2023-01-07T20:17:43.291Z,3.55
2023-01-07T20:22:46.048Z,4.28
2023-01-07T20:27:48.888Z,3.42
2023-01-07T20:32:53.096Z,3.30
2023-01-07T20:37:55.838Z,3.88
2023-01-07T20:42:58.680Z,3.88
2023-01-07T20:48:03.945Z,4.32
2023-01-07T20:53:06.685Z,4.25
2023-01-07T20:58:09.468Z,4.28
2023-01-07T21:03:13.641Z,3.33
2023-01-07T21:08:16.469Z,3.35
2023-01-07T21:13:21.682Z,3.05
2023-01-07T21:18:25.968Z,2.88
2023-01-07T21:23:28.812Z,4.10
2023-01-07T21:28:31.650Z,3.17
2023-01-07T21:33:36.447Z,2.78
2023-01-07T21:38:39.607Z,3.60
2023-01-07T21:43:43.064Z,3.85
2023-01-07T21:48:47.366Z,3.67
2023-01-07T21:53:51.966Z,3.35
2023-01-07T21:58:54.715Z,3.30
2023-01-07T22:03:59.779Z,3.72
2023-01-07T22:09:05.179Z,3.13
2023-01-07T22:14:08.733Z,6.07
2023-01-07T22:19:13.709Z,4.57
2023-01-07T22:24:16.573Z,3.78
2023-01-07T22:29:19.424Z,3.55
2023-01-07T22:34:23.528Z,3.83
2023-01-07T22:39:34.418Z,4.35
2023-01-07T22:44:40.735Z,4.05
2023-01-07T22:49:44.855Z,4.57
2023-01-07T22:54:47.908Z,3.90
2023-01-07T22:59:50.666Z,4.07
2023-01-07T23:04:54.751Z,4.13
2023-01-07T23:09:57.520Z,4.72
2023-01-07T23:15:00.236Z,4.65
2023-01-07T23:20:04.800Z,5.05
2023-01-07T23:25:08.756Z,4.05
2023-01-07T23:30:12.753Z,4.63
2023-01-07T23:35:16.914Z,4.22
2023-01-07T23:40:19.769Z,5.90
2023-01-07T23:45:23.044Z,4.85
2023-01-07T23:50:27.372Z,4.32
2023-01-07T23:55:30.106Z,4.15
